Time;durP1;ratioP1;P1;durP2;ratioP2;P2;SDS_P1;SDS_P2;PMS_P1;PMS_P2;Temp;Humidity;BMP_temperature;BMP_pressure;BME280_temperature;BME280_humidity;BME280_pressure;Samples;Min_cycle;Max_cycle;Signal;HPM_P1;HPM_P2
2022/02/16 00:00:23;;;;;;;37.85;19.08;;;;;;;5.32;86.79;99561.59;5093787;28;20044;-72
2022/02/16 00:02:53;;;;;;;34.22;17.92;;;;;;;5.33;86.97;99553.16;5093866;28;20139;-71
2022/02/16 00:05:22;;;;;;;37.60;18.13;;;;;;;5.31;86.70;99550.63;5092839;28;20093;-72
2022/02/16 00:07:51;;;;;;;38.93;19.67;;;;;;;5.31;87.31;99555.69;5093708;28;20127;-72
2022/02/16 00:10:20;;;;;;;32.45;16.05;;;;;;;5.31;87.06;99555.69;5094030;28;20308;-70
2022/02/16 00:12:50;;;;;;;40.27;19.20;;;;;;;5.30;87.34;99553.97;5093661;28;20070;-71
2022/02/16 00:15:23;;;;;;;39.10;19.83;;;;;;;5.28;87.21;99555.63;5093711;28;20048;-70
2022/02/16 00:17:52;;;;;;;40.15;19.45;;;;;;;5.29;87.26;99557.34;5093982;28;20485;-72
2022/02/16 00:20:21;;;;;;;40.10;19.42;;;;;;;5.26;87.46;99552.22;5093002;28;20545;-72
2022/02/16 00:22:50;;;;;;;39.25;20.17;;;;;;;5.25;87.55;99554.72;5093541;28;20044;-71
2022/02/16 00:25:20;;;;;;;;;;;;;;;5.26;87.47;99551.34;5094305;28;20044;-71
2022/02/16 00:27:50;;;;;;;38.53;18.85;;;;;;;5.17;87.43;99551.19;5093536;28;20015;-71
2022/02/16 00:30:19;;;;;;;41.83;21.63;;;;;;;5.20;87.58;99554.66;5092331;28;20044;-71
2022/02/16 00:32:49;;;;;;;44.03;22.10;;;;;;;5.23;87.61;99551.31;5093782;28;20127;-71
2022/02/16 00:35:20;;;;;;;39.70;19.90;;;;;;;5.28;87.72;99550.56;5093524;28;20368;-72
2022/02/16 00:37:51;;;;;;;44.30;20.92;;;;;;;5.26;87.69;99551.34;5093449;28;20045;-72
2022/02/16 00:40:20;;;;;;;45.40;20.67;;;;;;;5.28;87.36;99540.44;5094010;28;20440;-73
2022/02/16 00:42:49;;;;;;;40.80;21.17;;;;;;;5.27;87.54;99553.06;5093399;28;20044;-72
2022/02/16 00:45:18;;;;;;;42.40;20.92;;;;;;;5.27;87.63;99548.88;5096076;28;20052;-72
2022/02/16 00:47:49;;;;;;;47.67;22.00;;;;;;;5.28;87.83;99555.63;5096156;28;20043;-73
2022/02/16 00:50:19;;;;;;;44.20;20.35;;;;;;;5.19;87.51;99519.19;5097445;28;20077;-71
2022/02/16 00:52:48;;;;;;;40.20;19.35;;;;;;;5.38;87.85;99551.56;5096429;28;20531;-71
2022/02/16 00:55:18;;;;;;;40.22;19.77;;;;;;;5.41;87.83;99547.44;5095986;28;20044;-72
2022/02/16 00:57:47;;;;;;;38.58;20.02;;;;;;;5.40;87.89;99555.84;5097545;28;20064;-72
2022/02/16 01:00:17;;;;;;;44.88;23.25;;;;;;;5.33;87.61;99548.97;5095988;28;20044;-71
2022/02/16 01:02:53;;;;;;;37.38;20.27;;;;;;;5.32;87.65;99552.34;5095922;28;20043;-72
2022/02/16 01:05:22;;;;;;;39.78;21.35;;;;;;;5.24;87.61;99543.75;5096173;28;20059;-72
2022/02/16 01:07:51;;;;;;;33.08;16.23;;;;;;;5.24;87.67;99547.94;5096961;28;20546;-72
2022/02/16 01:10:21;;;;;;;38.97;20.07;;;;;;;5.29;87.58;99549.75;5097300;28;20505;-72
2022/02/16 01:12:54;;;;;;;38.90;20.33;;;;;;;5.37;88.07;99540.59;5095717;28;20280;-72
2022/02/16 01:15:25;;;;;;;39.95;20.38;;;;;;;5.37;87.88;99540.59;5095755;28;20089;-72
2022/02/16 01:17:56;;;;;;;44.60;21.80;;;;;;;5.36;87.69;99538.06;5096856;28;20048;-71
2022/02/16 01:20:33;;;;;;;41.67;20.63;;;;;;;5.23;87.58;99531.91;5095682;28;20052;-72
2022/02/16 01:23:08;;;;;;;43.75;21.45;;;;;;;5.21;87.58;99533.56;5095842;28;20040;-72
2022/02/16 01:25:38;;;;;;;40.40;21.27;;;;;;;5.23;87.38;99536.97;5096726;28;20070;-72
2022/02/16 01:28:21;;;;;;;40.42;20.45;;;;;;;5.26;87.87;99537.03;5095775;28;20136;-72
2022/02/16 01:30:51;;;;;;;39.05;20.63;;;;;;;5.29;87.65;99532.03;5095457;28;20055;-72
2022/02/16 01:33:26;;;;;;;50.05;22.00;;;;;;;5.28;87.73;99532.84;5096480;28;20043;-72
2022/02/16 01:35:55;;;;;;;36.28;20.05;;;;;;;5.23;87.80;99534.44;5095391;28;20485;-71
2022/02/16 01:38:24;;;;;;;31.90;15.20;;;;;;;5.06;87.61;99533.28;5096779;28;20489;-71
2022/02/16 01:41:17;;;;;;;35.38;18.67;;;;;;;5.01;87.38;99528.97;5096326;28;20454;-71
2022/02/16 01:43:59;;;;;;;36.72;18.20;;;;;;;5.04;87.63;99529.88;5096648;28;20113;-72
2022/02/16 01:46:29;;;;;;;37.75;19.75;;;;;;;5.06;88.05;99517.28;5095399;28;20051;-71
2022/02/16 01:49:02;;;;;;;41.28;19.25;;;;;;;5.01;88.06;99513.81;5096620;28;20135;-71
2022/02/16 01:51:35;;;;;;;40.00;19.45;;;;;;;4.99;88.28;99501.13;5095074;28;20044;-72
2022/02/16 01:54:09;;;;;;;40.40;19.52;;;;;;;4.97;88.48;99502.78;5078637;28;20058;-73
2022/02/16 01:56:44;;;;;;;37.85;19.30;;;;;;;5.00;88.34;99500.31;5093841;28;20444;-72
2022/02/16 01:59:16;;;;;;;41.95;20.05;;;;;;;4.87;88.16;99468.03;5094936;28;20048;-71
2022/02/16 02:01:56;;;;;;;39.60;20.70;;;;;;;4.99;88.36;99492.72;5096052;28;20105;-72
2022/02/16 02:04:26;;;;;;;25.98;12.90;;;;;;;4.98;88.37;99493.50;5095018;28;20494;-72
2022/02/16 02:07:00;;;;;;;42.28;19.45;;;;;;;5.04;88.59;99484.34;5094765;28;20052;-72
2022/02/16 02:09:32;;;;;;;37.38;17.48;;;;;;;5.14;88.15;99488.75;5094774;28;20055;-72
2022/02/16 02:12:01;;;;;;;38.05;19.63;;;;;;;5.06;88.31;99487.75;5094634;28;20127;-72
2022/02/16 02:14:34;;;;;;;37.83;19.73;;;;;;;4.88;88.55;99489.09;5094623;28;20048;-72
2022/02/16 02:17:07;;;;;;;36.58;18.50;;;;;;;4.82;88.55;99472.16;5094583;28;20135;-72
2022/02/16 02:19:37;;;;;;;;;;;;;;;4.93;89.25;99490.91;5095195;28;20089;-71
2022/02/16 02:22:10;;;;;;;36.03;18.45;;;;;;;5.02;88.69;99478.41;5094809;28;20431;-71
2022/02/16 02:24:40;;;;;;;32.90;18.17;;;;;;;4.89;88.67;99468.94;5095662;28;20131;-72
2022/02/16 02:27:09;;;;;;;32.55;17.40;;;;;;;4.95;88.99;99476.59;5095445;28;20072;-72
2022/02/16 02:29:39;;;;;;;33.03;16.95;;;;;;;4.89;88.57;99483.25;5094285;28;20086;-71
2022/02/16 02:32:09;;;;;;;33.65;17.33;;;;;;;4.92;89.09;99483.31;5094588;28;20405;-73
2022/02/16 02:34:38;;;;;;;29.33;16.30;;;;;;;4.92;88.75;99474.00;5094155;28;20044;-72
2022/02/16 02:37:07;;;;;;;30.67;17.42;;;;;;;4.84;88.92;99480.63;5095576;28;20052;-72
2022/02/16 02:39:38;;;;;;;25.20;12.73;;;;;;;4.84;88.81;99483.16;5095286;28;20089;-72
2022/02/16 02:42:07;;;;;;;35.17;16.27;;;;;;;4.84;88.70;99478.09;5095268;28;20048;-72
2022/02/16 02:44:37;;;;;;;34.90;18.00;;;;;;;4.84;88.61;99474.72;5094618;28;20044;-71
2022/02/16 02:47:06;;;;;;;38.17;19.13;;;;;;;4.82;89.29;99467.13;5093810;28;20457;-71
2022/02/16 02:49:38;;;;;;;34.95;17.77;;;;;;;4.90;88.74;99468.09;5093948;28;20048;-71
2022/02/16 02:52:09;;;;;;;44.13;19.50;;;;;;;4.94;89.07;99474.94;5077201;28;20090;-71
2022/02/16 02:54:39;;;;;;;36.33;18.23;;;;;;;4.97;89.08;99464.84;5093629;28;20280;-73
2022/02/16 02:57:08;;;;;;;37.70;19.48;;;;;;;4.99;88.97;99465.72;5094874;28;20048;-71
2022/02/16 02:59:40;;;;;;;41.00;20.15;;;;;;;5.01;89.08;99469.16;5093761;28;20130;-71
2022/02/16 03:02:09;;;;;;;41.25;20.73;;;;;;;5.03;89.14;99470.03;5093890;28;20077;-72
2022/02/16 03:04:38;;;;;;;41.73;19.33;;;;;;;4.99;89.21;99473.31;5094786;28;20118;-71
2022/02/16 03:07:07;;;;;;;26.25;13.95;;;;;;;4.95;89.31;99469.03;5094837;28;20063;-72
2022/02/16 03:09:36;;;;;;;36.35;18.38;;;;;;;4.92;89.50;99466.44;5095012;28;20539;-71
2022/02/16 03:12:08;;;;;;;36.17;19.00;;;;;;;4.90;89.20;99470.63;5095226;28;20078;-72
2022/02/16 03:14:37;;;;;;;37.40;18.50;;;;;;;4.96;89.46;99465.69;5094920;28;20816;-72
2022/02/16 03:17:06;;;;;;;39.15;19.02;;;;;;;5.01;89.34;99464.09;5094513;28;20047;-72
2022/02/16 03:19:35;;;;;;;36.60;19.17;;;;;;;5.08;89.58;99460.84;5094493;28;20082;-73
2022/02/16 03:22:05;;;;;;;34.45;17.95;;;;;;;5.03;89.48;99457.38;5093538;28;20043;-72
2022/02/16 03:24:34;;;;;;;36.75;18.70;;;;;;;4.95;89.52;99458.91;5094436;28;20040;-72
2022/02/16 03:27:07;;;;;;;39.83;18.67;;;;;;;4.90;89.57;99460.50;5093276;28;20538;-72
2022/02/16 03:29:47;;;;;;;37.42;17.90;;;;;;;4.91;89.66;99464.75;5094688;28;20559;-72
2022/02/16 03:32:16;;;;;;;38.08;18.92;;;;;;;4.91;89.69;99459.69;5093503;28;20188;-72
2022/02/16 03:34:45;;;;;;;40.85;18.38;;;;;;;4.89;89.66;99460.50;5094864;28;20039;-72
2022/02/16 03:37:14;;;;;;;34.63;15.25;;;;;;;4.91;89.63;99457.16;5093034;28;20520;-72
2022/02/16 03:39:44;;;;;;;38.28;19.63;;;;;;;5.02;89.37;99465.78;5094233;28;20502;-71
2022/02/16 03:42:15;;;;;;;41.42;19.17;;;;;;;5.06;89.58;99461.63;5093346;28;20382;-72
2022/02/16 03:44:44;;;;;;;36.78;19.23;;;;;;;5.09;89.42;99466.72;5093553;28;20075;-72
2022/02/16 03:47:17;;;;;;;36.83;18.33;;;;;;;5.08;89.58;99468.44;5092917;28;20047;-73
2022/02/16 03:49:46;;;;;;;37.75;19.23;;;;;;;4.97;89.40;99472.44;5092909;28;20566;-72
2022/02/16 03:52:15;;;;;;;29.63;14.75;;;;;;;5.02;89.80;99470.84;5094256;28;20040;-72
2022/02/16 03:54:45;;;;;;;40.30;20.02;;;;;;;5.09;89.70;99482.75;5092531;28;20054;-72
2022/02/16 03:57:15;;;;;;;40.77;20.70;;;;;;;5.12;89.71;99477.75;5093997;28;20055;-71
2022/02/16 03:59:44;;;;;;;38.20;18.77;;;;;;;5.17;89.31;99482.91;5092983;28;20379;-73
2022/02/16 04:02:30;;;;;;;39.08;19.67;;;;;;;5.19;89.42;99482.09;5094028;28;20048;-72
2022/02/16 04:04:59;;;;;;;36.35;18.63;;;;;;;5.15;89.51;99477.81;5092932;28;20127;-72
2022/02/16 04:07:28;;;;;;;35.37;19.83;;;;;;;5.13;89.45;99476.97;5094092;28;20068;-72
2022/02/16 04:09:57;;;;;;;41.73;19.77;;;;;;;5.11;89.24;99476.03;5092732;28;20036;-72
2022/02/16 04:12:28;;;;;;;43.63;19.85;;;;;;;5.10;89.42;99469.31;5092822;28;20292;-72
2022/02/16 04:14:57;;;;;;;36.72;17.95;;;;;;;5.15;89.33;99475.31;5093071;28;20067;-73
2022/02/16 04:17:26;;;;;;;32.75;16.65;;;;;;;5.07;89.14;99469.25;5093658;28;20036;-73
2022/02/16 04:20:01;;;;;;;41.05;18.42;;;;;;;4.99;89.39;99465.72;5091886;28;20044;-72
2022/02/16 04:22:31;;;;;;;37.42;18.50;;;;;;;4.99;89.08;99453.06;5093649;28;20134;-72
2022/02/16 04:25:00;;;;;;;40.83;21.38;;;;;;;4.99;89.26;99464.88;5092719;28;20044;-73
2022/02/16 04:27:31;;;;;;;39.20;19.95;;;;;;;4.90;89.48;99455.44;5092646;28;20490;-72
2022/02/16 04:30:00;;;;;;;37.15;18.58;;;;;;;4.90;89.04;99452.91;5075504;28;20036;-72
2022/02/16 04:32:29;;;;;;;;;;;;;;;4.89;89.11;99457.97;5092696;28;20086;-72
2022/02/16 04:34:58;;;;;;;34.90;17.52;;;;;;;4.91;89.38;99462.22;5075676;28;19920;-73
2022/02/16 04:37:27;;;;;;;37.92;18.55;;;;;;;4.95;89.33;99453.84;5092596;28;20040;-72
2022/02/16 04:39:57;;;;;;;38.05;18.25;;;;;;;4.94;89.24;99449.63;5092192;28;20040;-72
2022/02/16 04:42:27;;;;;;;38.65;18.80;;;;;;;4.96;89.23;99450.50;5075677;28;20048;-72
2022/02/16 04:44:58;;;;;;;38.25;19.98;;;;;;;5.02;89.05;99454.81;5092246;28;20040;-72
2022/02/16 04:47:28;;;;;;;42.25;19.77;;;;;;;5.00;89.52;99451.41;5092226;28;20055;-72
2022/02/16 04:49:57;;;;;;;39.15;18.70;;;;;;;4.96;89.27;99445.47;5092115;28;20035;-73
2022/02/16 04:52:34;;;;;;;33.67;17.80;;;;;;;4.87;89.05;99455.38;5092186;28;20102;-72
2022/02/16 04:55:30;;;;;;;37.17;18.50;;;;;;;4.93;89.42;99454.66;5091752;28;20052;-71
2022/02/16 04:58:06;;;;;;;36.45;18.92;;;;;;;4.97;89.15;99452.19;5092368;28;20536;-73
2022/02/16 05:00:36;;;;;;;;;;;;;;;4.93;89.14;99455.50;5092434;28;20047;-73
2022/02/16 05:03:15;;;;;;;36.03;16.85;;;;;;;4.90;89.18;99440.28;5093628;28;19973;-72
2022/02/16 05:05:46;;;;;;;38.17;18.73;;;;;;;4.91;88.83;99457.16;5093199;28;20102;-72
2022/02/16 05:08:15;;;;;;;42.58;20.95;;;;;;;4.87;89.17;99450.31;5092219;28;20062;-72
2022/02/16 05:10:45;;;;;;;34.10;18.15;;;;;;;4.80;88.86;99443.44;5092081;28;20055;-73
2022/02/16 05:13:22;;;;;;;41.22;18.33;;;;;;;4.78;88.97;99457.75;5092292;28;20048;-72
2022/02/16 05:15:56;;;;;;;42.63;17.67;;;;;;;4.73;89.10;99456.81;5092005;28;20101;-72
2022/02/16 05:18:25;;;;;;;38.35;18.90;;;;;;;4.70;89.34;99451.72;5092230;28;20397;-73
2022/02/16 05:20:56;;;;;;;36.95;19.30;;;;;;;4.66;89.46;99455.84;5092368;28;20048;-73
2022/02/16 05:23:25;;;;;;;81.35;40.60;;;;;;;4.58;89.32;99459.06;5092255;28;20044;-72
2022/02/16 05:26:10;;;;;;;145.27;61.42;;;;;;;4.47;89.49;99457.97;5092101;28;20044;-72
2022/02/16 05:28:40;;;;;;;61.00;29.98;;;;;;;4.53;89.57;99451.41;5091813;28;20052;-73
2022/02/16 05:31:12;;;;;;;38.58;18.52;;;;;;;4.60;89.36;99444.78;5092162;28;20126;-73
2022/02/16 05:33:41;;;;;;;39.58;18.58;;;;;;;4.58;89.06;99447.25;5095429;28;20048;-72
2022/02/16 05:36:17;;;;;;;34.22;17.90;;;;;;;4.49;89.07;99436.13;5095415;28;20098;-73
2022/02/16 05:38:46;;;;;;;39.55;18.42;;;;;;;4.61;89.56;99436.34;5096556;28;20044;-73
2022/02/16 05:41:15;;;;;;;41.10;20.33;;;;;;;4.64;89.74;99426.31;5095801;28;20479;-74
2022/02/16 05:43:45;;;;;;;40.05;22.02;;;;;;;4.63;89.84;99424.63;5095258;28;20455;-73
2022/02/16 05:46:18;;;;;;;48.65;21.20;;;;;;;4.69;89.69;99434.84;5095518;28;20051;-73
2022/02/16 05:48:48;;;;;;;47.05;22.52;;;;;;;4.79;89.55;99431.66;5096311;28;20131;-73
2022/02/16 05:51:17;;;;;;;44.63;22.60;;;;;;;4.75;89.45;99429.91;5095558;28;20529;-73
2022/02/16 05:53:47;;;;;;;46.83;22.85;;;;;;;4.76;89.74;99436.66;5095274;28;20280;-73
2022/02/16 05:56:17;;;;;;;44.28;21.85;;;;;;;4.68;89.25;99433.13;5077986;28;20052;-74
2022/02/16 05:58:47;;;;;;;45.22;21.95;;;;;;;4.65;89.72;99433.09;5078269;28;20497;-75
2022/02/16 06:01:18;;;;;;;31.00;15.52;;;;;;;4.74;89.65;99430.72;5094878;28;20047;-73
2022/02/16 06:03:55;;;;;;;42.25;21.23;;;;;;;4.75;89.70;99434.97;5095306;28;20048;-73
2022/02/16 06:06:25;;;;;;;47.28;22.40;;;;;;;4.72;89.46;99437.44;5095339;28;20057;-73
2022/02/16 06:08:55;;;;;;;38.67;20.15;;;;;;;4.68;90.01;99439.03;5094605;28;20052;-73
2022/02/16 06:11:25;;;;;;;;;;;;;;;4.55;89.70;99431.19;5096306;28;20051;-73
2022/02/16 06:13:59;;;;;;;37.88;18.00;;;;;;;4.46;89.20;99431.03;5094630;28;19920;-73
2022/02/16 06:16:29;;;;;;;42.17;18.92;;;;;;;4.50;89.79;99445.41;5094787;28;20098;-73
2022/02/16 06:18:58;;;;;;;39.05;19.50;;;;;;;4.40;89.37;99443.53;5094516;28;20059;-73
2022/02/16 06:21:28;;;;;;;37.95;18.75;;;;;;;4.42;89.42;99439.34;5094694;28;20047;-73
2022/02/16 06:23:58;;;;;;;33.38;18.05;;;;;;;4.39;90.06;99444.38;5094410;28;20044;-73
2022/02/16 06:26:28;;;;;;;36.13;19.10;;;;;;;4.41;89.61;99453.69;5095818;28;20048;-73
2022/02/16 06:29:00;;;;;;;37.17;19.02;;;;;;;4.46;89.52;99456.28;5094168;28;20428;-73
2022/02/16 06:31:39;;;;;;;36.10;17.75;;;;;;;4.23;89.51;99422.13;5094257;28;20044;-74
2022/02/16 06:34:11;;;;;;;39.85;18.25;;;;;;;4.37;89.74;99456.94;5094204;28;20048;-73
2022/02/16 06:36:43;;;;;;;36.88;18.55;;;;;;;4.40;89.99;99456.16;5094482;28;20048;-75
2022/02/16 06:39:13;;;;;;;38.67;19.33;;;;;;;4.52;89.63;99453.88;5095353;28;20098;-72
2022/02/16 06:41:42;;;;;;;29.13;13.65;;;;;;;4.63;89.59;99458.31;5093887;28;20406;-74
2022/02/16 06:44:14;;;;;;;38.80;19.20;;;;;;;4.72;89.68;99455.13;5093931;28;20048;-73
2022/02/16 06:46:47;;;;;;;37.83;18.40;;;;;;;4.66;89.32;99462.56;5077350;28;20494;-73
2022/02/16 06:49:21;;;;;;;34.80;17.95;;;;;;;4.61;89.65;99454.91;5094198;28;20408;-73
2022/02/16 06:51:58;;;;;;;38.85;18.88;;;;;;;4.73;89.73;99455.13;5077458;28;20048;-73
2022/02/16 06:54:28;;;;;;;39.08;18.23;;;;;;;4.64;89.46;99432.22;5095083;28;20044;-74
2022/02/16 06:56:57;;;;;;;39.90;20.27;;;;;;;4.74;89.25;99448.41;5093707;28;20564;-74
2022/02/16 06:59:52;;;;;;;41.28;19.42;;;;;;;4.78;89.65;99452.69;5091725;28;20074;-75
2022/02/16 07:02:23;;;;;;;39.38;18.98;;;;;;;4.79;89.71;99451.88;5094794;28;20101;-73
2022/02/16 07:04:52;;;;;;;38.08;18.67;;;;;;;4.81;89.45;99445.16;5093655;28;20486;-73
2022/02/16 07:07:21;;;;;;;42.15;20.27;;;;;;;4.83;89.31;99458.69;5095227;28;20040;-73
2022/02/16 07:09:50;;;;;;;37.42;18.27;;;;;;;4.89;89.73;99453.75;5094867;28;20452;-73
2022/02/16 07:12:20;;;;;;;;;;;;;;;4.90;89.83;99455.44;5095098;28;20075;-74
2022/02/16 07:14:53;;;;;;;;;;;;;;;4.97;89.46;99444.63;5093904;28;19920;-74
2022/02/16 07:17:24;;;;;;;34.38;15.95;;;;;;;5.00;89.48;99447.19;5076739;28;20010;-73
2022/02/16 07:19:55;;;;;;;39.28;19.35;;;;;;;5.02;89.35;99450.59;5093612;28;20043;-73
2022/02/16 07:22:27;;;;;;;37.65;17.90;;;;;;;5.07;89.34;99443.94;5093534;28;20086;-73
2022/02/16 07:24:58;;;;;;;35.08;17.73;;;;;;;5.13;89.19;99449.13;5093590;28;20059;-73
2022/02/16 07:27:27;;;;;;;33.47;16.90;;;;;;;5.17;89.54;99455.94;5094439;28;20044;-73
2022/02/16 07:29:57;;;;;;;35.80;18.90;;;;;;;5.15;88.67;99457.59;5093334;28;20040;-73
2022/02/16 07:32:27;;;;;;;32.75;16.38;;;;;;;5.15;89.21;99446.63;5094263;28;20093;-73
2022/02/16 07:34:58;;;;;;;38.72;18.50;;;;;;;5.10;88.86;99444.00;5093374;28;20079;-73
2022/02/16 07:37:28;;;;;;;;;;;;;;;5.08;89.28;99445.66;5075955;28;20064;-74
2022/02/16 07:39:59;;;;;;;32.33;15.65;;;;;;;5.00;89.10;99454.78;5094710;28;20300;-73
2022/02/16 07:42:30;;;;;;;35.92;16.67;;;;;;;5.00;89.20;99459.84;5076271;28;20143;-73
2022/02/16 07:45:20;;;;;;;34.70;17.08;;;;;;;5.06;89.21;99459.13;5093901;28;20040;-73
2022/02/16 07:47:51;;;;;;;35.17;17.55;;;;;;;5.21;89.10;99461.88;5092832;28;20440;-73
2022/02/16 07:50:20;;;;;;;35.63;17.65;;;;;;;5.39;89.06;99463.06;5093056;28;20519;-74
2022/02/16 07:53:01;;;;;;;35.83;17.95;;;;;;;5.72;89.14;99464.41;5094319;28;20055;-74
2022/02/16 07:55:39;;;;;;;42.63;18.88;;;;;;;6.10;89.19;99465.81;5093100;28;20051;-73
2022/02/16 07:58:08;;;;;;;35.97;18.58;;;;;;;6.25;88.79;99465.19;5092712;28;20056;-73
2022/02/16 08:00:39;;;;;;;36.70;19.15;;;;;;;6.49;88.65;99466.34;5092948;28;20048;-72
2022/02/16 08:03:23;;;;;;;34.65;18.00;;;;;;;6.57;88.26;99459.69;5072712;28;20117;-73
2022/02/16 08:05:53;;;;;;;34.20;17.00;;;;;;;6.59;88.31;99452.94;5087194;28;20040;-74
2022/02/16 08:08:24;;;;;;;36.15;17.13;;;;;;;6.59;87.95;99450.41;5088753;28;20123;-75
2022/02/16 08:10:54;;;;;;;30.50;16.42;;;;;;;6.62;87.81;99447.88;5091747;28;20044;-75
2022/02/16 08:13:24;;;;;;;31.60;15.60;;;;;;;6.53;87.51;99435.13;5089526;28;20036;-75
2022/02/16 08:16:08;;;;;;;27.75;13.82;;;;;;;6.56;87.43;99432.63;5091354;28;20044;-75
2022/02/16 08:18:48;;;;;;;31.52;15.45;;;;;;;6.76;86.81;99425.22;5090044;28;20048;-75
2022/02/16 08:21:19;;;;;;;27.17;13.95;;;;;;;6.87;86.96;99422.78;5091803;28;20044;-76
2022/02/16 08:23:50;;;;;;;25.13;12.95;;;;;;;6.86;86.68;99429.56;5075491;28;20067;-75
2022/02/16 08:26:20;;;;;;;24.00;12.77;;;;;;;7.01;86.59;99421.22;5093322;28;20461;-75
2022/02/16 08:28:50;;;;;;;26.83;13.48;;;;;;;7.20;85.87;99428.16;5091832;28;20044;-76
2022/02/16 08:31:23;;;;;;;27.13;13.90;;;;;;;7.19;85.66;99422.25;5081150;28;20051;-74
2022/02/16 08:34:10;;;;;;;26.92;12.77;;;;;;;7.29;85.44;99413.03;5092502;28;20094;-75
2022/02/16 08:36:55;;;;;;;22.63;12.40;;;;;;;7.37;85.01;99414.78;5092311;28;20048;-74
2022/02/16 08:39:26;;;;;;;21.95;11.88;;;;;;;7.48;84.05;99419.09;5093740;28;20545;-75
2022/02/16 08:41:56;;;;;;;23.40;12.07;;;;;;;7.55;84.40;99411.53;5093721;28;20508;-75
2022/02/16 08:44:25;;;;;;;22.33;11.77;;;;;;;7.62;84.30;99407.34;5093364;28;20036;-75
2022/02/16 08:46:54;;;;;;;20.27;10.20;;;;;;;7.73;83.16;99401.47;5092766;28;20047;-75
2022/02/16 08:49:24;;;;;;;23.60;12.15;;;;;;;7.85;83.24;99396.47;5092381;28;20086;-75
2022/02/16 08:51:54;;;;;;;22.55;12.02;;;;;;;8.01;82.84;99388.06;5093457;28;20044;-74
2022/02/16 08:54:23;;;;;;;23.92;12.52;;;;;;;8.17;81.96;99395.78;5092338;28;20048;-73
2022/02/16 08:56:52;;;;;;;22.73;11.47;;;;;;;8.21;81.56;99395.78;5093405;28;20486;-74
2022/02/16 08:59:21;;;;;;;22.57;11.17;;;;;;;8.37;81.34;99392.50;5093111;28;20047;-74
2022/02/16 09:01:54;;;;;;;23.80;11.35;;;;;;;8.57;80.48;99410.34;5090368;28;20040;-74
2022/02/16 09:04:25;;;;;;;20.30;10.77;;;;;;;8.54;81.13;99406.09;5093019;28;20481;-74
2022/02/16 09:09:33;;;;;;;22.58;11.00;;;;;;;8.61;79.74;99401.91;5095323;28;20044;-74
2022/02/16 09:12:02;;;;;;;20.65;11.05;;;;;;;8.92;79.62;99398.56;5094127;28;20058;-74
2022/02/16 09:14:30;;;;;;;14.75;7.65;;;;;;;9.14;79.75;99397.72;5096740;28;20041;-74
2022/02/16 09:17:00;;;;;;;17.17;8.52;;;;;;;9.23;78.71;99400.28;5096667;28;20078;-74
2022/02/16 09:19:30;;;;;;;18.10;10.90;;;;;;;9.23;78.11;99399.44;5096711;28;20052;-74
2022/02/16 09:21:59;;;;;;;19.98;10.88;;;;;;;9.35;77.62;99400.28;5093721;28;20275;-74
2022/02/16 09:24:28;;;;;;;18.23;10.10;;;;;;;9.08;77.65;99405.38;5096535;28;20123;-74
2022/02/16 09:26:57;;;;;;;17.25;9.35;;;;;;;8.96;76.93;99405.34;5096270;28;20100;-74
2022/02/16 09:29:26;;;;;;;17.07;9.57;;;;;;;8.99;77.12;99405.38;5095643;28;20051;-74
2022/02/16 09:31:56;;;;;;;18.08;10.25;;;;;;;9.03;75.82;99401.13;5095966;28;20036;-74
2022/02/16 09:34:24;;;;;;;17.13;10.23;;;;;;;9.15;76.19;99407.06;5095104;28;20048;-74
2022/02/16 09:36:56;;;;;;;16.63;9.43;;;;;;;9.25;75.73;99403.69;5093028;28;20038;-75
2022/02/16 09:39:25;;;;;;;19.60;10.15;;;;;;;9.15;75.63;99394.34;5095022;28;20043;-74
2022/02/16 09:41:55;;;;;;;18.40;10.25;;;;;;;9.47;75.88;99396.03;5093601;28;20432;-74
2022/02/16 09:44:34;;;;;;;19.00;10.07;;;;;;;9.48;74.72;99390.91;5096264;28;20051;-75
2022/02/16 09:47:05;;;;;;;14.95;8.18;;;;;;;9.65;74.22;99383.25;5096304;28;20750;-74
2022/02/16 09:49:34;;;;;;;16.80;9.10;;;;;;;9.75;73.64;99375.59;5096405;28;20050;-75
2022/02/16 09:52:09;;;;;;;15.48;8.20;;;;;;;9.84;72.86;99374.72;5095989;28;20127;-74
2022/02/16 09:54:38;;;;;;;16.00;8.90;;;;;;;9.83;72.53;99367.94;5096546;28;20040;-74
2022/02/16 09:57:07;;;;;;;17.08;8.45;;;;;;;9.86;72.30;99365.38;5096340;28;20481;-74
2022/02/16 09:59:37;;;;;;;18.17;10.00;;;;;;;10.10;71.96;99352.56;5061228;28;20044;-74
2022/02/16 10:02:08;;;;;;;12.52;7.28;;;;;;;10.12;71.17;99355.97;5096070;28;20044;-74
2022/02/16 10:04:39;;;;;;;18.40;8.18;;;;;;;10.09;70.94;99350.84;5096122;28;20504;-76
2022/02/16 10:07:24;;;;;;;13.57;7.82;;;;;;;10.03;70.33;99344.06;5096276;28;20398;-74
2022/02/16 10:09:53;;;;;;;14.05;6.93;;;;;;;10.09;70.37;99335.53;5095902;28;20449;-73
2022/02/16 10:12:31;;;;;;;12.02;7.03;;;;;;;10.26;70.20;99341.44;5087639;28;20086;-74
2022/02/16 10:15:00;;;;;;;14.05;7.90;;;;;;;10.49;70.25;99342.16;5080284;28;20040;-73
2022/02/16 10:17:31;;;;;;;14.15;7.95;;;;;;;10.51;69.67;99337.88;5074954;28;20501;-74
2022/02/16 10:20:02;;;;;;;16.33;9.38;;;;;;;10.60;69.46;99327.66;5075679;28;20406;-74
2022/02/16 10:22:41;;;;;;;13.90;7.55;;;;;;;10.48;69.80;99325.19;5075780;28;20494;-73
2022/02/16 10:25:13;;;;;;;14.25;7.50;;;;;;;10.48;68.83;99317.53;5075675;28;20463;-73
2022/02/16 10:28:10;;;;;;;12.60;7.45;;;;;;;10.55;68.76;99314.06;5075488;28;20082;-74
2022/02/16 10:30:54;;;;;;;14.50;7.78;;;;;;;10.73;67.76;99311.38;5086282;28;20043;-76
2022/02/16 10:33:25;;;;;;;15.30;7.65;;;;;;;10.72;67.66;99308.84;5094358;28;20135;-75
2022/02/16 10:36:04;;;;;;;16.35;8.10;;;;;;;10.67;67.54;99301.22;5095068;28;20440;-75
2022/02/16 10:38:52;;;;;;;15.20;7.22;;;;;;;10.74;67.53;99297.78;5094781;28;20044;-76
2022/02/16 10:41:22;;;;;;;12.27;6.72;;;;;;;11.00;66.64;99301.81;5089285;28;20097;-75
2022/02/16 10:43:52;;;;;;;10.48;6.72;;;;;;;10.92;65.77;99289.09;5093653;28;20113;-74
2022/02/16 10:46:24;;;;;;;10.65;6.07;;;;;;;11.16;64.92;99281.22;5094464;28;20068;-74
2022/02/16 10:49:10;;;;;;;10.13;5.60;;;;;;;11.16;64.28;99286.31;5094973;28;20086;-75
2022/02/16 10:52:12;;;;;;;11.82;6.07;;;;;;;10.62;64.71;99280.00;5094845;28;20123;-73
2022/02/16 10:54:52;;;;;;;10.70;5.97;;;;;;;10.69;64.41;99268.88;5093318;28;20044;-74
2022/02/16 10:57:22;;;;;;;11.90;6.47;;;;;;;11.15;64.19;99268.47;5090387;28;20044;-74
2022/02/16 10:59:51;;;;;;;;;;;;;;;11.16;64.28;99259.94;5087245;28;20078;-73
2022/02/16 11:02:22;;;;;;;9.60;5.20;;;;;;;11.06;64.73;99253.25;5093930;28;19935;-73
2022/02/16 11:04:54;;;;;;;11.20;5.95;;;;;;;11.23;64.54;99259.00;5092405;28;20052;-73
2022/02/16 11:07:25;;;;;;;9.65;5.43;;;;;;;11.43;63.64;99249.44;5094966;28;20051;-72
2022/02/16 11:10:03;;;;;;;8.73;5.00;;;;;;;11.42;62.98;99247.75;5094906;28;20044;-73
2022/02/16 11:12:32;;;;;;;9.10;4.57;;;;;;;11.64;62.33;99258.56;5092942;28;20109;-73
2022/02/16 11:15:02;;;;;;;9.45;5.25;;;;;;;11.74;61.71;99255.91;5094122;28;20048;-73
2022/02/16 11:17:31;;;;;;;9.43;4.75;;;;;;;11.67;61.17;99232.97;5094835;28;20097;-73
2022/02/16 11:20:18;;;;;;;11.07;4.80;;;;;;;12.03;60.03;99248.72;5094212;28;20544;-73
2022/02/16 11:22:51;;;;;;;11.30;4.38;;;;;;;12.03;59.52;99219.72;5094658;28;20113;-73
2022/02/16 11:25:31;;;;;;;8.38;5.03;;;;;;;12.45;58.70;99238.72;5094501;28;20121;-74
2022/02/16 11:28:31;;;;;;;6.97;4.22;;;;;;;12.36;57.38;99241.41;5084410;28;20040;-73
2022/02/16 11:31:00;;;;;;;7.03;3.90;;;;;;;12.37;56.86;99232.88;5094491;28;20056;-74
2022/02/16 11:33:30;;;;;;;7.95;4.30;;;;;;;12.08;56.99;99228.19;5094558;28;20040;-73
2022/02/16 11:36:00;;;;;;;9.00;4.57;;;;;;;11.84;57.80;99219.16;5094259;28;20504;-73
2022/02/16 11:38:41;;;;;;;8.25;4.35;;;;;;;12.00;58.11;99217.22;5094330;28;20054;-73
2022/02/16 11:41:22;;;;;;;6.38;3.75;;;;;;;12.17;57.86;99209.28;5094067;28;20101;-73
2022/02/16 11:43:57;;;;;;;8.13;3.80;;;;;;;12.31;57.52;99197.97;5094452;28;20036;-74
2022/02/16 11:46:40;;;;;;;8.32;3.72;;;;;;;12.56;57.17;99206.13;5089414;28;20045;-75
2022/02/16 11:49:50;;;;;;;6.35;3.85;;;;;;;12.52;56.32;99196.81;5086384;28;20481;-74
2022/02/16 11:52:34;;;;;;;6.57;3.53;;;;;;;12.51;56.02;99195.09;5090041;28;20109;-74
2022/02/16 11:55:04;;;;;;;7.50;3.90;;;;;;;12.64;55.80;99181.25;5093793;28;20505;-74